sensor_id;sensor_type;location;lat;lon;timestamp;P1;durP1;ratioP1;P2;durP2;ratioP2
21213;SDS011;10764;50.850;2.904;2022-12-18T00:01:23;22.65;;;15.65;;
21213;SDS011;10764;50.850;2.904;2022-12-18T00:03:53;23.88;;;15.45;;
21213;SDS011;10764;50.850;2.904;2022-12-18T00:06:21;23.05;;;15.32;;
21213;SDS011;10764;50.850;2.904;2022-12-18T00:08:48;22.95;;;15.88;;
21213;SDS011;10764;50.850;2.904;2022-12-18T00:11:16;24.23;;;15.40;;
21213;SDS011;10764;50.850;2.904;2022-12-18T00:13:45;22.85;;;15.10;;
21213;SDS011;10764;50.850;2.904;2022-12-18T00:16:14;22.85;;;15.38;;
21213;SDS011;10764;50.850;2.904;2022-12-18T00:18:42;23.42;;;14.93;;
21213;SDS011;10764;50.850;2.904;2022-12-18T00:21:09;23.55;;;15.57;;
21213;SDS011;10764;50.850;2.904;2022-12-18T00:23:38;21.80;;;14.55;;
21213;SDS011;10764;50.850;2.904;2022-12-18T00:26:08;22.65;;;15.13;;
21213;SDS011;10764;50.850;2.904;2022-12-18T00:28:38;23.80;;;15.40;;
21213;SDS011;10764;50.850;2.904;2022-12-18T00:31:08;22.33;;;14.73;;
21213;SDS011;10764;50.850;2.904;2022-12-18T00:33:37;23.20;;;15.02;;
21213;SDS011;10764;50.850;2.904;2022-12-18T00:36:13;22.80;;;15.23;;
21213;SDS011;10764;50.850;2.904;2022-12-18T00:38:42;22.73;;;15.15;;
21213;SDS011;10764;50.850;2.904;2022-12-18T00:41:10;24.38;;;15.70;;
21213;SDS011;10764;50.850;2.904;2022-12-18T00:43:39;22.80;;;15.20;;
21213;SDS011;10764;50.850;2.904;2022-12-18T00:46:07;24.50;;;15.55;;
21213;SDS011;10764;50.850;2.904;2022-12-18T00:48:34;23.13;;;14.95;;
21213;SDS011;10764;50.850;2.904;2022-12-18T00:51:01;23.03;;;15.03;;
21213;SDS011;10764;50.850;2.904;2022-12-18T00:53:28;23.40;;;15.07;;
21213;SDS011;10764;50.850;2.904;2022-12-18T00:55:55;23.70;;;14.80;;
21213;SDS011;10764;50.850;2.904;2022-12-18T00:58:22;24.08;;;15.27;;
21213;SDS011;10764;50.850;2.904;2022-12-18T01:00:48;22.05;;;14.73;;
21213;SDS011;10764;50.850;2.904;2022-12-18T01:03:15;22.13;;;14.45;;
21213;SDS011;10764;50.850;2.904;2022-12-18T01:05:42;22.33;;;14.93;;
21213;SDS011;10764;50.850;2.904;2022-12-18T01:08:10;24.63;;;15.20;;
21213;SDS011;10764;50.850;2.904;2022-12-18T01:10:39;22.75;;;14.52;;
21213;SDS011;10764;50.850;2.904;2022-12-18T01:13:07;22.45;;;14.55;;
21213;SDS011;10764;50.850;2.904;2022-12-18T01:15:35;23.25;;;14.63;;
21213;SDS011;10764;50.850;2.904;2022-12-18T01:18:02;24.98;;;15.75;;
21213;SDS011;10764;50.850;2.904;2022-12-18T01:20:28;23.40;;;14.68;;
21213;SDS011;10764;50.850;2.904;2022-12-18T01:22:55;22.30;;;14.40;;
21213;SDS011;10764;50.850;2.904;2022-12-18T01:25:22;23.27;;;14.80;;
21213;SDS011;10764;50.850;2.904;2022-12-18T01:27:49;22.20;;;14.93;;
21213;SDS011;10764;50.850;2.904;2022-12-18T01:30:16;21.60;;;14.23;;
21213;SDS011;10764;50.850;2.904;2022-12-18T01:32:44;22.35;;;14.65;;
21213;SDS011;10764;50.850;2.904;2022-12-18T01:35:11;22.27;;;14.65;;
21213;SDS011;10764;50.850;2.904;2022-12-18T01:37:37;21.23;;;14.13;;
21213;SDS011;10764;50.850;2.904;2022-12-18T01:40:04;22.08;;;14.50;;
21213;SDS011;10764;50.850;2.904;2022-12-18T01:42:32;22.52;;;14.40;;
21213;SDS011;10764;50.850;2.904;2022-12-18T01:52:45;24.10;;;14.95;;
21213;SDS011;10764;50.850;2.904;2022-12-18T01:55:14;22.88;;;14.02;;
21213;SDS011;10764;50.850;2.904;2022-12-18T01:57:45;22.05;;;14.65;;
21213;SDS011;10764;50.850;2.904;2022-12-18T02:00:14;23.13;;;14.63;;
21213;SDS011;10764;50.850;2.904;2022-12-18T02:02:44;22.48;;;14.32;;
21213;SDS011;10764;50.850;2.904;2022-12-18T02:05:13;22.58;;;14.55;;
21213;SDS011;10764;50.850;2.904;2022-12-18T02:08:05;22.50;;;14.02;;
21213;SDS011;10764;50.850;2.904;2022-12-18T02:18:54;20.48;;;13.65;;
21213;SDS011;10764;50.850;2.904;2022-12-18T02:21:36;21.23;;;13.63;;
21213;SDS011;10764;50.850;2.904;2022-12-18T02:24:35;21.48;;;13.77;;
21213;SDS011;10764;50.850;2.904;2022-12-18T02:27:11;20.00;;;13.18;;
21213;SDS011;10764;50.850;2.904;2022-12-18T02:29:44;21.08;;;13.88;;
21213;SDS011;10764;50.850;2.904;2022-12-18T02:32:35;21.00;;;13.75;;
21213;SDS011;10764;50.850;2.904;2022-12-18T02:35:06;19.98;;;12.95;;
21213;SDS011;10764;50.850;2.904;2022-12-18T02:37:35;19.75;;;13.25;;
21213;SDS011;10764;50.850;2.904;2022-12-18T02:40:06;20.13;;;13.18;;
21213;SDS011;10764;50.850;2.904;2022-12-18T02:42:36;19.90;;;13.27;;
21213;SDS011;10764;50.850;2.904;2022-12-18T02:45:05;19.57;;;12.90;;
21213;SDS011;10764;50.850;2.904;2022-12-18T02:47:39;19.53;;;13.07;;
21213;SDS011;10764;50.850;2.904;2022-12-18T02:50:26;18.88;;;12.27;;
21213;SDS011;10764;50.850;2.904;2022-12-18T02:53:15;18.17;;;12.35;;
21213;SDS011;10764;50.850;2.904;2022-12-18T03:01:43;18.20;;;12.82;;
21213;SDS011;10764;50.850;2.904;2022-12-18T03:04:26;19.33;;;12.70;;
21213;SDS011;10764;50.850;2.904;2022-12-18T03:06:58;17.15;;;12.30;;
21213;SDS011;10764;50.850;2.904;2022-12-18T03:09:35;18.80;;;12.53;;
21213;SDS011;10764;50.850;2.904;2022-12-18T03:12:07;17.88;;;12.45;;
21213;SDS011;10764;50.850;2.904;2022-12-18T03:17:30;17.77;;;12.23;;
21213;SDS011;10764;50.850;2.904;2022-12-18T03:20:00;17.75;;;12.32;;
21213;SDS011;10764;50.850;2.904;2022-12-18T03:22:34;17.23;;;12.05;;
21213;SDS011;10764;50.850;2.904;2022-12-18T03:25:04;19.30;;;12.48;;
21213;SDS011;10764;50.850;2.904;2022-12-18T03:27:35;16.95;;;11.60;;
21213;SDS011;10764;50.850;2.904;2022-12-18T03:30:09;16.38;;;11.57;;
21213;SDS011;10764;50.850;2.904;2022-12-18T03:33:02;17.10;;;11.63;;
21213;SDS011;10764;50.850;2.904;2022-12-18T03:35:44;16.83;;;11.32;;
21213;SDS011;10764;50.850;2.904;2022-12-18T03:38:11;18.65;;;12.20;;
21213;SDS011;10764;50.850;2.904;2022-12-18T03:43:18;16.35;;;11.48;;
21213;SDS011;10764;50.850;2.904;2022-12-18T03:46:01;17.77;;;12.10;;
21213;SDS011;10764;50.850;2.904;2022-12-18T03:48:37;15.90;;;11.35;;
21213;SDS011;10764;50.850;2.904;2022-12-18T03:51:17;16.77;;;11.60;;
21213;SDS011;10764;50.850;2.904;2022-12-18T03:56:29;16.33;;;11.45;;
21213;SDS011;10764;50.850;2.904;2022-12-18T03:59:01;16.65;;;11.35;;
21213;SDS011;10764;50.850;2.904;2022-12-18T04:01:34;18.27;;;12.30;;
21213;SDS011;10764;50.850;2.904;2022-12-18T04:04:04;15.80;;;11.35;;
21213;SDS011;10764;50.850;2.904;2022-12-18T04:06:36;16.57;;;11.70;;
21213;SDS011;10764;50.850;2.904;2022-12-18T04:09:05;15.57;;;11.45;;
21213;SDS011;10764;50.850;2.904;2022-12-18T04:11:37;15.85;;;11.27;;
21213;SDS011;10764;50.850;2.904;2022-12-18T04:14:05;15.70;;;11.00;;
21213;SDS011;10764;50.850;2.904;2022-12-18T04:16:33;15.77;;;11.15;;
21213;SDS011;10764;50.850;2.904;2022-12-18T04:19:02;15.32;;;10.98;;
21213;SDS011;10764;50.850;2.904;2022-12-18T04:21:36;16.83;;;11.23;;
21213;SDS011;10764;50.850;2.904;2022-12-18T04:24:03;16.05;;;11.32;;
21213;SDS011;10764;50.850;2.904;2022-12-18T04:26:32;15.70;;;11.38;;
21213;SDS011;10764;50.850;2.904;2022-12-18T04:29:31;15.13;;;10.65;;
21213;SDS011;10764;50.850;2.904;2022-12-18T04:31:58;15.88;;;11.05;;
21213;SDS011;10764;50.850;2.904;2022-12-18T04:34:27;14.73;;;10.60;;
21213;SDS011;10764;50.850;2.904;2022-12-18T04:36:54;15.15;;;10.73;;
21213;SDS011;10764;50.850;2.904;2022-12-18T04:39:22;15.60;;;10.90;;
21213;SDS011;10764;50.850;2.904;2022-12-18T04:41:52;17.13;;;11.32;;
21213;SDS011;10764;50.850;2.904;2022-12-18T04:44:19;14.77;;;10.70;;
21213;SDS011;10764;50.850;2.904;2022-12-18T04:46:46;15.95;;;10.77;;
21213;SDS011;10764;50.850;2.904;2022-12-18T04:49:12;15.30;;;10.60;;
21213;SDS011;10764;50.850;2.904;2022-12-18T04:51:39;14.77;;;10.20;;
21213;SDS011;10764;50.850;2.904;2022-12-18T04:54:06;15.30;;;10.52;;
21213;SDS011;10764;50.850;2.904;2022-12-18T04:56:33;14.30;;;10.57;;
21213;SDS011;10764;50.850;2.904;2022-12-18T04:59:00;15.68;;;10.38;;
21213;SDS011;10764;50.850;2.904;2022-12-18T05:01:26;16.20;;;10.47;;
21213;SDS011;10764;50.850;2.904;2022-12-18T05:04:00;14.85;;;10.52;;
21213;SDS011;10764;50.850;2.904;2022-12-18T05:06:27;14.07;;;10.07;;
21213;SDS011;10764;50.850;2.904;2022-12-18T05:08:54;13.10;;;9.93;;
21213;SDS011;10764;50.850;2.904;2022-12-18T05:11:20;14.10;;;10.00;;
21213;SDS011;10764;50.850;2.904;2022-12-18T05:13:47;14.10;;;10.23;;
21213;SDS011;10764;50.850;2.904;2022-12-18T05:16:14;14.00;;;9.80;;
21213;SDS011;10764;50.850;2.904;2022-12-18T05:18:41;15.88;;;10.95;;
21213;SDS011;10764;50.850;2.904;2022-12-18T05:21:08;14.00;;;9.90;;
21213;SDS011;10764;50.850;2.904;2022-12-18T05:23:35;14.02;;;10.00;;
21213;SDS011;10764;50.850;2.904;2022-12-18T05:26:04;14.60;;;10.23;;
21213;SDS011;10764;50.850;2.904;2022-12-18T05:28:32;13.90;;;9.68;;
21213;SDS011;10764;50.850;2.904;2022-12-18T05:31:01;13.93;;;9.75;;
21213;SDS011;10764;50.850;2.904;2022-12-18T05:33:29;13.52;;;9.77;;
21213;SDS011;10764;50.850;2.904;2022-12-18T05:35:59;14.05;;;10.02;;
21213;SDS011;10764;50.850;2.904;2022-12-18T05:38:29;13.23;;;9.55;;
21213;SDS011;10764;50.850;2.904;2022-12-18T05:40:56;13.77;;;9.75;;
21213;SDS011;10764;50.850;2.904;2022-12-18T05:43:24;13.40;;;9.90;;
21213;SDS011;10764;50.850;2.904;2022-12-18T05:45:52;14.18;;;9.93;;
21213;SDS011;10764;50.850;2.904;2022-12-18T05:48:19;14.18;;;9.90;;
21213;SDS011;10764;50.850;2.904;2022-12-18T05:50:47;14.02;;;9.70;;
21213;SDS011;10764;50.850;2.904;2022-12-18T05:53:17;13.68;;;9.77;;
21213;SDS011;10764;50.850;2.904;2022-12-18T05:55:45;12.40;;;9.20;;
21213;SDS011;10764;50.850;2.904;2022-12-18T05:58:13;13.52;;;9.13;;
21213;SDS011;10764;50.850;2.904;2022-12-18T06:00:41;15.47;;;9.97;;
21213;SDS011;10764;50.850;2.904;2022-12-18T06:03:12;13.00;;;9.63;;
21213;SDS011;10764;50.850;2.904;2022-12-18T06:05:44;12.77;;;9.43;;
21213;SDS011;10764;50.850;2.904;2022-12-18T06:08:12;13.82;;;9.82;;
21213;SDS011;10764;50.850;2.904;2022-12-18T06:10:39;11.90;;;9.00;;
21213;SDS011;10764;50.850;2.904;2022-12-18T06:13:07;13.57;;;9.60;;
21213;SDS011;10764;50.850;2.904;2022-12-18T06:15:36;11.82;;;8.95;;
21213;SDS011;10764;50.850;2.904;2022-12-18T06:18:03;13.65;;;9.70;;
21213;SDS011;10764;50.850;2.904;2022-12-18T06:20:30;13.25;;;9.45;;
21213;SDS011;10764;50.850;2.904;2022-12-18T06:22:59;13.00;;;9.35;;
21213;SDS011;10764;50.850;2.904;2022-12-18T06:25:26;13.05;;;9.57;;
21213;SDS011;10764;50.850;2.904;2022-12-18T06:27:53;12.90;;;9.18;;
21213;SDS011;10764;50.850;2.904;2022-12-18T06:30:20;12.52;;;8.85;;
21213;SDS011;10764;50.850;2.904;2022-12-18T06:32:47;13.60;;;9.52;;
21213;SDS011;10764;50.850;2.904;2022-12-18T06:35:21;12.23;;;8.80;;
21213;SDS011;10764;50.850;2.904;2022-12-18T06:37:48;12.98;;;9.20;;
21213;SDS011;10764;50.850;2.904;2022-12-18T06:40:15;12.77;;;8.88;;
21213;SDS011;10764;50.850;2.904;2022-12-18T06:42:42;12.57;;;9.00;;
21213;SDS011;10764;50.850;2.904;2022-12-18T06:45:09;13.02;;;9.10;;
21213;SDS011;10764;50.850;2.904;2022-12-18T06:47:37;11.60;;;8.57;;
21213;SDS011;10764;50.850;2.904;2022-12-18T06:50:04;12.47;;;8.90;;
21213;SDS011;10764;50.850;2.904;2022-12-18T06:52:32;11.77;;;8.60;;
21213;SDS011;10764;50.850;2.904;2022-12-18T06:54:59;11.35;;;8.30;;
21213;SDS011;10764;50.850;2.904;2022-12-18T06:57:26;11.70;;;8.40;;
21213;SDS011;10764;50.850;2.904;2022-12-18T06:59:53;12.27;;;8.57;;
21213;SDS011;10764;50.850;2.904;2022-12-18T07:02:20;11.90;;;8.30;;
21213;SDS011;10764;50.850;2.904;2022-12-18T07:04:47;10.73;;;7.88;;
21213;SDS011;10764;50.850;2.904;2022-12-18T07:07:14;10.52;;;7.80;;
21213;SDS011;10764;50.850;2.904;2022-12-18T07:09:41;12.55;;;8.43;;
21213;SDS011;10764;50.850;2.904;2022-12-18T07:12:07;11.10;;;7.97;;
21213;SDS011;10764;50.850;2.904;2022-12-18T07:14:34;10.18;;;7.45;;
21213;SDS011;10764;50.850;2.904;2022-12-18T07:17:01;10.32;;;7.85;;
21213;SDS011;10764;50.850;2.904;2022-12-18T07:19:29;11.68;;;8.10;;
21213;SDS011;10764;50.850;2.904;2022-12-18T07:21:56;10.60;;;7.88;;
21213;SDS011;10764;50.850;2.904;2022-12-18T07:24:23;11.25;;;8.30;;
21213;SDS011;10764;50.850;2.904;2022-12-18T07:26:49;11.00;;;7.70;;
21213;SDS011;10764;50.850;2.904;2022-12-18T07:29:16;10.50;;;7.50;;
21213;SDS011;10764;50.850;2.904;2022-12-18T07:31:43;10.35;;;7.30;;
21213;SDS011;10764;50.850;2.904;2022-12-18T07:34:11;9.98;;;7.40;;
21213;SDS011;10764;50.850;2.904;2022-12-18T07:36:38;10.15;;;7.60;;
21213;SDS011;10764;50.850;2.904;2022-12-18T07:39:05;9.77;;;7.40;;
21213;SDS011;10764;50.850;2.904;2022-12-18T07:41:34;10.13;;;7.15;;
21213;SDS011;10764;50.850;2.904;2022-12-18T07:44:11;10.27;;;7.43;;
21213;SDS011;10764;50.850;2.904;2022-12-18T07:46:38;10.15;;;7.55;;
21213;SDS011;10764;50.850;2.904;2022-12-18T07:49:05;9.65;;;7.13;;
21213;SDS011;10764;50.850;2.904;2022-12-18T07:51:31;10.57;;;7.88;;
21213;SDS011;10764;50.850;2.904;2022-12-18T07:53:58;9.52;;;6.85;;
21213;SDS011;10764;50.850;2.904;2022-12-18T07:56:25;10.60;;;7.45;;
21213;SDS011;10764;50.850;2.904;2022-12-18T07:58:55;9.98;;;7.13;;
21213;SDS011;10764;50.850;2.904;2022-12-18T08:01:22;9.95;;;7.20;;
21213;SDS011;10764;50.850;2.904;2022-12-18T08:03:50;9.68;;;7.40;;
21213;SDS011;10764;50.850;2.904;2022-12-18T08:06:18;10.52;;;7.15;;
21213;SDS011;10764;50.850;2.904;2022-12-18T08:08:50;10.00;;;7.10;;
21213;SDS011;10764;50.850;2.904;2022-12-18T08:11:20;10.45;;;7.15;;
21213;SDS011;10764;50.850;2.904;2022-12-18T08:13:48;10.38;;;6.97;;
21213;SDS011;10764;50.850;2.904;2022-12-18T08:16:15;9.45;;;6.70;;
21213;SDS011;10764;50.850;2.904;2022-12-18T08:18:43;8.98;;;6.72;;
21213;SDS011;10764;50.850;2.904;2022-12-18T08:21:14;9.73;;;6.80;;
21213;SDS011;10764;50.850;2.904;2022-12-18T08:23:42;9.53;;;6.87;;
21213;SDS011;10764;50.850;2.904;2022-12-18T08:26:10;9.37;;;6.87;;
21213;SDS011;10764;50.850;2.904;2022-12-18T08:28:37;10.57;;;6.88;;
21213;SDS011;10764;50.850;2.904;2022-12-18T08:31:04;11.05;;;7.05;;
21213;SDS011;10764;50.850;2.904;2022-12-18T08:33:32;9.82;;;6.70;;
21213;SDS011;10764;50.850;2.904;2022-12-18T08:35:59;11.07;;;7.43;;
21213;SDS011;10764;50.850;2.904;2022-12-18T08:38:27;15.38;;;9.98;;
21213;SDS011;10764;50.850;2.904;2022-12-18T08:41:01;18.08;;;11.52;;
21213;SDS011;10764;50.850;2.904;2022-12-18T08:43:29;16.10;;;10.52;;
21213;SDS011;10764;50.850;2.904;2022-12-18T08:46:33;16.10;;;10.80;;
21213;SDS011;10764;50.850;2.904;2022-12-18T08:49:05;15.88;;;10.48;;
21213;SDS011;10764;50.850;2.904;2022-12-18T08:51:33;15.27;;;9.90;;
21213;SDS011;10764;50.850;2.904;2022-12-18T08:54:01;17.58;;;11.35;;
21213;SDS011;10764;50.850;2.904;2022-12-18T08:56:29;19.00;;;11.75;;
21213;SDS011;10764;50.850;2.904;2022-12-18T08:58:57;19.10;;;12.07;;
21213;SDS011;10764;50.850;2.904;2022-12-18T09:01:25;19.85;;;12.60;;
21213;SDS011;10764;50.850;2.904;2022-12-18T09:03:52;21.55;;;13.00;;
21213;SDS011;10764;50.850;2.904;2022-12-18T09:06:20;19.93;;;12.30;;
21213;SDS011;10764;50.850;2.904;2022-12-18T09:08:48;20.13;;;12.23;;
21213;SDS011;10764;50.850;2.904;2022-12-18T09:11:19;21.55;;;13.02;;
21213;SDS011;10764;50.850;2.904;2022-12-18T09:13:47;19.17;;;12.40;;
21213;SDS011;10764;50.850;2.904;2022-12-18T09:16:14;20.42;;;12.05;;
21213;SDS011;10764;50.850;2.904;2022-12-18T09:18:41;17.63;;;11.93;;
21213;SDS011;10764;50.850;2.904;2022-12-18T09:21:13;21.27;;;12.75;;
21213;SDS011;10764;50.850;2.904;2022-12-18T09:23:42;19.35;;;12.02;;
21213;SDS011;10764;50.850;2.904;2022-12-18T09:26:09;19.10;;;12.30;;
21213;SDS011;10764;50.850;2.904;2022-12-18T09:28:39;19.90;;;12.57;;
21213;SDS011;10764;50.850;2.904;2022-12-18T09:31:07;19.75;;;13.10;;
21213;SDS011;10764;50.850;2.904;2022-12-18T09:33:35;19.67;;;12.63;;
21213;SDS011;10764;50.850;2.904;2022-12-18T09:36:03;19.77;;;12.85;;
21213;SDS011;10764;50.850;2.904;2022-12-18T09:38:31;19.67;;;12.68;;
21213;SDS011;10764;50.850;2.904;2022-12-18T09:41:03;19.27;;;12.75;;
21213;SDS011;10764;50.850;2.904;2022-12-18T09:43:35;19.63;;;12.67;;
21213;SDS011;10764;50.850;2.904;2022-12-18T09:46:10;21.15;;;13.63;;
21213;SDS011;10764;50.850;2.904;2022-12-18T09:48:40;23.35;;;15.40;;
21213;SDS011;10764;50.850;2.904;2022-12-18T09:51:11;31.27;;;18.52;;
21213;SDS011;10764;50.850;2.904;2022-12-18T09:53:40;31.60;;;19.63;;
21213;SDS011;10764;50.850;2.904;2022-12-18T09:56:10;32.55;;;20.05;;
21213;SDS011;10764;50.850;2.904;2022-12-18T09:58:44;30.60;;;19.52;;
21213;SDS011;10764;50.850;2.904;2022-12-18T10:01:23;31.93;;;20.20;;
21213;SDS011;10764;50.850;2.904;2022-12-18T10:03:58;34.05;;;20.85;;
21213;SDS011;10764;50.850;2.904;2022-12-18T10:25:32;46.40;;;29.08;;
21213;SDS011;10764;50.850;2.904;2022-12-18T10:28:10;45.85;;;27.52;;
21213;SDS011;10764;50.850;2.904;2022-12-18T10:30:39;45.50;;;26.60;;
21213;SDS011;10764;50.850;2.904;2022-12-18T10:33:14;49.03;;;29.85;;
21213;SDS011;10764;50.850;2.904;2022-12-18T10:35:43;51.55;;;29.15;;
21213;SDS011;10764;50.850;2.904;2022-12-18T10:40:53;46.03;;;27.23;;
21213;SDS011;10764;50.850;2.904;2022-12-18T10:43:30;47.03;;;27.35;;
21213;SDS011;10764;50.850;2.904;2022-12-18T10:46:04;44.88;;;27.60;;
21213;SDS011;10764;50.850;2.904;2022-12-18T10:51:06;44.70;;;27.30;;
21213;SDS011;10764;50.850;2.904;2022-12-18T10:53:38;46.20;;;27.23;;
21213;SDS011;10764;50.850;2.904;2022-12-18T10:56:06;43.08;;;26.58;;
21213;SDS011;10764;50.850;2.904;2022-12-18T10:58:37;48.45;;;27.08;;
21213;SDS011;10764;50.850;2.904;2022-12-18T11:01:16;44.17;;;26.38;;
21213;SDS011;10764;50.850;2.904;2022-12-18T11:03:47;41.30;;;25.53;;
21213;SDS011;10764;50.850;2.904;2022-12-18T11:06:28;40.35;;;25.52;;
21213;SDS011;10764;50.850;2.904;2022-12-18T11:09:03;37.92;;;23.85;;
21213;SDS011;10764;50.850;2.904;2022-12-18T11:11:39;41.42;;;25.92;;
21213;SDS011;10764;50.850;2.904;2022-12-18T11:14:13;44.92;;;26.70;;
21213;SDS011;10764;50.850;2.904;2022-12-18T11:16:44;45.53;;;26.63;;
21213;SDS011;10764;50.850;2.904;2022-12-18T11:19:33;42.22;;;26.42;;
21213;SDS011;10764;50.850;2.904;2022-12-18T11:22:01;46.42;;;27.45;;
21213;SDS011;10764;50.850;2.904;2022-12-18T11:24:30;46.60;;;26.85;;
21213;SDS011;10764;50.850;2.904;2022-12-18T11:27:00;44.17;;;27.10;;
21213;SDS011;10764;50.850;2.904;2022-12-18T11:29:32;39.03;;;25.07;;
21213;SDS011;10764;50.850;2.904;2022-12-18T11:32:20;43.80;;;26.17;;
21213;SDS011;10764;50.850;2.904;2022-12-18T11:34:52;40.92;;;25.30;;
21213;SDS011;10764;50.850;2.904;2022-12-18T11:37:24;41.05;;;24.60;;
21213;SDS011;10764;50.850;2.904;2022-12-18T11:39:58;41.70;;;25.45;;
21213;SDS011;10764;50.850;2.904;2022-12-18T11:42:38;40.60;;;25.23;;
21213;SDS011;10764;50.850;2.904;2022-12-18T11:45:18;39.50;;;25.23;;
21213;SDS011;10764;50.850;2.904;2022-12-18T11:47:56;40.13;;;24.92;;
21213;SDS011;10764;50.850;2.904;2022-12-18T11:50:45;40.50;;;24.93;;
21213;SDS011;10764;50.850;2.904;2022-12-18T11:53:14;39.65;;;25.25;;
21213;SDS011;10764;50.850;2.904;2022-12-18T12:00:49;39.22;;;24.02;;
21213;SDS011;10764;50.850;2.904;2022-12-18T12:03:22;37.42;;;23.33;;
21213;SDS011;10764;50.850;2.904;2022-12-18T12:06:06;39.85;;;24.67;;
21213;SDS011;10764;50.850;2.904;2022-12-18T12:11:27;39.55;;;24.70;;
21213;SDS011;10764;50.850;2.904;2022-12-18T12:22:13;40.22;;;24.55;;
21213;SDS011;10764;50.850;2.904;2022-12-18T12:30:06;39.38;;;25.13;;
21213;SDS011;10764;50.850;2.904;2022-12-18T12:35:32;38.60;;;24.35;;
21213;SDS011;10764;50.850;2.904;2022-12-18T12:38:06;39.53;;;24.90;;
21213;SDS011;10764;50.850;2.904;2022-12-18T12:40:37;41.33;;;25.73;;
21213;SDS011;10764;50.850;2.904;2022-12-18T12:46:09;43.17;;;27.48;;
21213;SDS011;10764;50.850;2.904;2022-12-18T12:48:44;45.03;;;28.10;;
21213;SDS011;10764;50.850;2.904;2022-12-18T12:51:30;44.20;;;27.93;;
21213;SDS011;10764;50.850;2.904;2022-12-18T12:53:59;42.35;;;27.70;;
21213;SDS011;10764;50.850;2.904;2022-12-18T12:56:36;42.85;;;26.80;;
21213;SDS011;10764;50.850;2.904;2022-12-18T12:59:22;44.87;;;28.33;;
21213;SDS011;10764;50.850;2.904;2022-12-18T13:01:57;44.97;;;27.58;;
21213;SDS011;10764;50.850;2.904;2022-12-18T13:09:29;43.35;;;28.55;;
21213;SDS011;10764;50.850;2.904;2022-12-18T13:12:08;48.25;;;29.33;;
21213;SDS011;10764;50.850;2.904;2022-12-18T13:20:37;46.38;;;28.85;;
21213;SDS011;10764;50.850;2.904;2022-12-18T13:34:31;39.93;;;25.87;;
21213;SDS011;10764;50.850;2.904;2022-12-18T13:36:55;41.00;;;26.27;;
21213;SDS011;10764;50.850;2.904;2022-12-18T13:39:32;39.92;;;25.25;;
21213;SDS011;10764;50.850;2.904;2022-12-18T13:48:04;37.88;;;24.00;;
21213;SDS011;10764;50.850;2.904;2022-12-18T13:50:32;36.92;;;23.90;;
21213;SDS011;10764;50.850;2.904;2022-12-18T13:53:03;35.40;;;23.15;;
21213;SDS011;10764;50.850;2.904;2022-12-18T13:55:31;34.65;;;22.73;;
21213;SDS011;10764;50.850;2.904;2022-12-18T13:58:05;34.50;;;22.63;;
21213;SDS011;10764;50.850;2.904;2022-12-18T14:00:33;35.35;;;22.80;;
21213;SDS011;10764;50.850;2.904;2022-12-18T14:03:00;32.55;;;22.02;;
21213;SDS011;10764;50.850;2.904;2022-12-18T14:05:29;33.47;;;21.35;;
21213;SDS011;10764;50.850;2.904;2022-12-18T14:08:04;32.85;;;21.60;;
21213;SDS011;10764;50.850;2.904;2022-12-18T14:10:34;30.38;;;20.70;;
21213;SDS011;10764;50.850;2.904;2022-12-18T14:13:23;31.65;;;20.88;;
21213;SDS011;10764;50.850;2.904;2022-12-18T14:15:54;30.08;;;19.88;;
21213;SDS011;10764;50.850;2.904;2022-12-18T14:26:50;27.80;;;18.98;;
21213;SDS011;10764;50.850;2.904;2022-12-18T14:29:24;25.83;;;17.77;;
21213;SDS011;10764;50.850;2.904;2022-12-18T14:32:06;25.05;;;17.75;;
21213;SDS011;10764;50.850;2.904;2022-12-18T14:34:42;25.37;;;17.00;;
21213;SDS011;10764;50.850;2.904;2022-12-18T14:37:14;24.20;;;17.23;;
21213;SDS011;10764;50.850;2.904;2022-12-18T14:39:53;22.55;;;16.50;;
21213;SDS011;10764;50.850;2.904;2022-12-18T14:42:20;24.77;;;17.15;;
21213;SDS011;10764;50.850;2.904;2022-12-18T14:44:47;22.17;;;16.02;;
21213;SDS011;10764;50.850;2.904;2022-12-18T14:47:34;21.38;;;15.75;;
21213;SDS011;10764;50.850;2.904;2022-12-18T14:50:01;21.17;;;15.48;;
21213;SDS011;10764;50.850;2.904;2022-12-18T14:52:28;22.85;;;16.10;;
21213;SDS011;10764;50.850;2.904;2022-12-18T14:54:57;22.33;;;15.10;;
21213;SDS011;10764;50.850;2.904;2022-12-18T14:57:25;21.02;;;15.00;;
21213;SDS011;10764;50.850;2.904;2022-12-18T15:00:04;22.13;;;14.70;;
21213;SDS011;10764;50.850;2.904;2022-12-18T15:02:34;20.55;;;14.52;;
21213;SDS011;10764;50.850;2.904;2022-12-18T15:07:51;19.77;;;13.85;;
21213;SDS011;10764;50.850;2.904;2022-12-18T15:10:21;20.30;;;14.68;;
21213;SDS011;10764;50.850;2.904;2022-12-18T15:18:00;19.13;;;13.57;;
21213;SDS011;10764;50.850;2.904;2022-12-18T15:20:27;19.92;;;13.63;;
21213;SDS011;10764;50.850;2.904;2022-12-18T15:22:57;20.35;;;14.07;;
21213;SDS011;10764;50.850;2.904;2022-12-18T15:25:35;19.67;;;13.90;;
21213;SDS011;10764;50.850;2.904;2022-12-18T15:28:03;19.50;;;13.70;;
21213;SDS011;10764;50.850;2.904;2022-12-18T15:30:57;17.95;;;12.77;;
21213;SDS011;10764;50.850;2.904;2022-12-18T15:33:31;17.98;;;12.70;;
21213;SDS011;10764;50.850;2.904;2022-12-18T15:36:01;17.17;;;12.70;;
21213;SDS011;10764;50.850;2.904;2022-12-18T15:38:35;16.85;;;12.27;;
21213;SDS011;10764;50.850;2.904;2022-12-18T15:41:02;16.63;;;12.48;;
21213;SDS011;10764;50.850;2.904;2022-12-18T15:43:29;17.67;;;12.63;;
21213;SDS011;10764;50.850;2.904;2022-12-18T15:46:04;17.53;;;12.30;;
21213;SDS011;10764;50.850;2.904;2022-12-18T15:48:53;17.23;;;12.48;;
21213;SDS011;10764;50.850;2.904;2022-12-18T15:51:36;16.92;;;12.18;;
21213;SDS011;10764;50.850;2.904;2022-12-18T15:54:06;16.10;;;12.18;;
21213;SDS011;10764;50.850;2.904;2022-12-18T15:56:38;17.10;;;12.18;;
21213;SDS011;10764;50.850;2.904;2022-12-18T15:59:23;16.17;;;12.05;;
21213;SDS011;10764;50.850;2.904;2022-12-18T16:01:51;17.15;;;11.55;;
21213;SDS011;10764;50.850;2.904;2022-12-18T16:04:19;17.42;;;11.77;;
21213;SDS011;10764;50.850;2.904;2022-12-18T16:06:47;17.20;;;11.55;;
21213;SDS011;10764;50.850;2.904;2022-12-18T16:09:35;15.55;;;11.50;;
21213;SDS011;10764;50.850;2.904;2022-12-18T16:12:02;16.13;;;11.55;;
21213;SDS011;10764;50.850;2.904;2022-12-18T16:14:31;15.95;;;11.82;;
21213;SDS011;10764;50.850;2.904;2022-12-18T16:16:59;16.67;;;12.07;;
21213;SDS011;10764;50.850;2.904;2022-12-18T16:19:28;16.25;;;11.57;;
21213;SDS011;10764;50.850;2.904;2022-12-18T16:21:56;15.50;;;11.07;;
21213;SDS011;10764;50.850;2.904;2022-12-18T16:24:24;16.67;;;11.57;;
21213;SDS011;10764;50.850;2.904;2022-12-18T16:26:53;15.90;;;11.18;;
21213;SDS011;10764;50.850;2.904;2022-12-18T16:29:23;17.23;;;11.68;;
21213;SDS011;10764;50.850;2.904;2022-12-18T16:31:54;15.25;;;11.00;;
21213;SDS011;10764;50.850;2.904;2022-12-18T16:34:29;15.03;;;10.93;;
21213;SDS011;10764;50.850;2.904;2022-12-18T16:37:02;16.58;;;10.90;;
21213;SDS011;10764;50.850;2.904;2022-12-18T16:39:35;15.63;;;10.95;;
21213;SDS011;10764;50.850;2.904;2022-12-18T16:42:04;16.53;;;11.00;;
21213;SDS011;10764;50.850;2.904;2022-12-18T16:44:43;16.00;;;11.15;;
21213;SDS011;10764;50.850;2.904;2022-12-18T16:47:10;14.85;;;10.75;;
21213;SDS011;10764;50.850;2.904;2022-12-18T16:49:40;15.27;;;11.10;;
21213;SDS011;10764;50.850;2.904;2022-12-18T16:52:07;15.10;;;10.85;;
21213;SDS011;10764;50.850;2.904;2022-12-18T16:54:34;15.67;;;10.80;;